Leandra — V2EB4 — position and weather

sailwx.info

Track history (hours):
 
Tides and Currents Weather Stations Pressure Air Temp Water Temp Dewpoint Dewpoint Depression Visibility Wind Speed Wind Dir Waves Ship Positions

Leandra

Last reported at 2017-Jan-19 13:17 UTC. Time now 2017-Jan-19 17:05 UTC.
Position N 63°02' E 007°42'.

Length 146 m; draft 7.4 m.

Type: Ship (hazmat cat D). MMSI: 305375000.

Date/timePositionNaut miles runAvg speedWind from/ knotsBaromVisibWave heightAir tempDewpointWater temp
2017-Jan-19 13:17N 63°02' E 007°42'710.0
2017-Jan-19 12:34N 63°09' E 007°42'5110.1
2017-Jan-19 07:29N 63°38' E 009°16'83 9.3
2017-Jan-18 22:29N 64°47' E 011°04'1010.9
2017-Jan-18 21:33N 64°54' E 011°21'  
2017-Jan-14 10:33N 65°04' E 011°45'1312.6
2017-Jan-14 09:33N 64°56' E 011°22'13511.9
2017-Jan-13 22:08N 63°14' E 007°60'813.1
2017-Jan-13 21:34N 63°10' E 007°46'8 2.5
2017-Jan-13 18:22N 63°02' E 007°42'6 8.0
2017-Jan-13 17:33N 63°06' E 007°30'206 9.8
2017-Jan-12 20:33N 59°48' E 005°33'4611.5
2017-Jan-12 16:32N 59°03' E 005°14'416 8.6
2017-Jan-10 16:11N 52°09' E 003°55'812.4
2017-Jan-10 15:33N 52°01' E 003°58'1212.4
2017-Jan-10 14:33N 51°55' E 004°15'6 6.1
2017-Jan-10 13:33N 51°53' E 004°25'0 0.0
2017-Jan-10 12:27N 51°53' E 004°25'0 0.0
2017-Jan-10 11:30N 51°53' E 004°25'0 0.0
2017-Jan-10 10:33N 51°53' E 004°25'0 0.0
2017-Jan-10 09:33N 51°53' E 004°25'0 0.0
2017-Jan-10 08:33N 51°53' E 004°25'0 0.0
2017-Jan-10 07:33N 51°53' E 004°25'0 0.0
2017-Jan-10 06:33N 51°53' E 004°25'0 0.0
2017-Jan-10 05:33N 51°53' E 004°25'0 0.0
2017-Jan-10 04:33N 51°53' E 004°25'0 0.0
2017-Jan-10 03:33N 51°53' E 004°25'0 0.0
2017-Jan-10 02:33N 51°53' E 004°25'0 0.0
2017-Jan-10 01:33N 51°53' E 004°25'0 0.0
2017-Jan-10 00:33N 51°53' E 004°25'0 0.0
2017-Jan-09 23:33N 51°53' E 004°25'0 0.0
2017-Jan-09 22:33N 51°53' E 004°25'0 0.0
2017-Jan-09 21:33N 51°53' E 004°25'0 0.0
2017-Jan-09 20:33N 51°53' E 004°25'0 0.0
2017-Jan-09 19:33N 51°53' E 004°25'0 0.0
2017-Jan-09 18:33N 51°53' E 004°25'0 0.0
2017-Jan-09 17:33N 51°53' E 004°25'0 0.0
2017-Jan-09 16:24N 51°53' E 004°25'0 0.0
2017-Jan-09 15:30N 51°53' E 004°25'0 0.0
2017-Jan-09 14:33N 51°53' E 004°25'0 0.0
2017-Jan-09 13:30N 51°53' E 004°25'  
Track history (hours):
 
Tides and Currents Weather Stations Pressure Air Temp Water Temp Dewpoint Dewpoint Depression Visibility Wind Speed Wind Dir Waves Ship Positions

Leandra

Last reported at 2017-Jan-19 13:17 UTC. Time now 2017-Jan-19 17:05 UTC.
Position N 63°02' E 007°42'.

Length 146 m; draft 7.4 m.

Type: Ship (hazmat cat D). MMSI: 305375000.

Date/timePositionNaut miles runAvg speedWind from/ knotsBaromVisibWave heightAir tempDewpointWater temp
2017-Jan-19 13:17N 63°02' E 007°42'710.0
2017-Jan-19 12:34N 63°09' E 007°42'5110.1
2017-Jan-19 07:29N 63°38' E 009°16'83 9.3
2017-Jan-18 22:29N 64°47' E 011°04'1010.9
2017-Jan-18 21:33N 64°54' E 011°21'  
2017-Jan-14 10:33N 65°04' E 011°45'1312.6
2017-Jan-14 09:33N 64°56' E 011°22'13511.9
2017-Jan-13 22:08N 63°14' E 007°60'813.1
2017-Jan-13 21:34N 63°10' E 007°46'8 2.5
2017-Jan-13 18:22N 63°02' E 007°42'6 8.0
2017-Jan-13 17:33N 63°06' E 007°30'206 9.8
2017-Jan-12 20:33N 59°48' E 005°33'4611.5
2017-Jan-12 16:32N 59°03' E 005°14'416 8.6
2017-Jan-10 16:11N 52°09' E 003°55'812.4
2017-Jan-10 15:33N 52°01' E 003°58'1212.4
2017-Jan-10 14:33N 51°55' E 004°15'6 6.1
2017-Jan-10 13:33N 51°53' E 004°25'0 0.0
2017-Jan-10 12:27N 51°53' E 004°25'0 0.0
2017-Jan-10 11:30N 51°53' E 004°25'0 0.0
2017-Jan-10 10:33N 51°53' E 004°25'0 0.0
2017-Jan-10 09:33N 51°53' E 004°25'0 0.0
2017-Jan-10 08:33N 51°53' E 004°25'0 0.0
2017-Jan-10 07:33N 51°53' E 004°25'0 0.0
2017-Jan-10 06:33N 51°53' E 004°25'0 0.0
2017-Jan-10 05:33N 51°53' E 004°25'0 0.0
2017-Jan-10 04:33N 51°53' E 004°25'0 0.0
2017-Jan-10 03:33N 51°53' E 004°25'0 0.0
2017-Jan-10 02:33N 51°53' E 004°25'0 0.0
2017-Jan-10 01:33N 51°53' E 004°25'0 0.0
2017-Jan-10 00:33N 51°53' E 004°25'0 0.0
2017-Jan-09 23:33N 51°53' E 004°25'0 0.0
2017-Jan-09 22:33N 51°53' E 004°25'0 0.0
2017-Jan-09 21:33N 51°53' E 004°25'0 0.0
2017-Jan-09 20:33N 51°53' E 004°25'0 0.0
2017-Jan-09 19:33N 51°53' E 004°25'0 0.0
2017-Jan-09 18:33N 51°53' E 004°25'0 0.0
2017-Jan-09 17:33N 51°53' E 004°25'0 0.0
2017-Jan-09 16:24N 51°53' E 004°25'0 0.0
2017-Jan-09 15:30N 51°53' E 004°25'0 0.0
2017-Jan-09 14:33N 51°53' E 004°25'0 0.0
2017-Jan-09 13:30N 51°53' E 004°25'  

Dump ship's entire track history